Time;durP1;ratioP1;P1;durP2;ratioP2;P2;SDS_P1;SDS_P2;PMS_P1;PMS_P2;Temp;Humidity;BMP_temperature;BMP_pressure;BME280_temperature;BME280_humidity;BME280_pressure;Samples;Min_cycle;Max_cycle;Signal;HPM_P1;HPM_P2
2023/12/11 00:01:16;;;;;;;17.08;2.63;;;;;;;-144.05;78.65;56984.78;4993636;28;20060;-87
2023/12/11 00:03:42;;;;;;;13.20;2.17;;;;;;;-144.05;78.42;56984.78;5008746;28;20026;-86
2023/12/11 00:06:10;;;;;;;16.35;2.33;;;;;;;-144.05;78.15;56984.78;4992268;28;20049;-88
2023/12/11 00:08:36;;;;;;;13.18;2.95;;;;;;;-144.05;78.51;56972.03;5008433;28;20029;-87
2023/12/11 00:11:03;;;;;;;16.13;2.50;;;;;;;-144.05;78.56;56986.91;5005759;28;20097;-86
2023/12/11 00:13:29;;;;;;;14.13;3.13;;;;;;;-144.05;78.20;56986.91;4988849;28;20030;-87
2023/12/11 00:15:56;;;;;;;12.38;2.58;;;;;;;-144.05;77.66;56969.91;4992575;28;20053;-85
2023/12/11 00:18:22;;;;;;;15.55;3.65;;;;;;;-144.05;77.79;56980.53;4992182;28;20096;-85
2023/12/11 00:20:48;;;;;;;18.25;2.85;;;;;;;-144.05;77.22;56997.50;5007446;28;20034;-88
2023/12/11 00:23:15;;;;;;;16.80;4.38;;;;;;;-144.05;76.94;56993.25;5005170;28;20426;-85
2023/12/11 00:25:46;;;;;;;12.15;2.70;;;;;;;-144.05;77.17;56991.13;4989068;28;20489;-85
2023/12/11 00:28:13;;;;;;;17.67;3.53;;;;;;;-144.05;77.21;56982.66;4973623;28;20034;-88
2023/12/11 00:30:39;;;;;;;19.52;3.20;;;;;;;-144.05;76.74;56980.53;4992793;28;20034;-86
2023/12/11 00:33:06;;;;;;;13.18;2.75;;;;;;;-144.05;77.02;56980.53;5008383;28;20026;-84
2023/12/11 00:35:32;;;;;;;17.55;3.28;;;;;;;-144.05;76.33;56997.50;5007843;28;20061;-86
2023/12/11 00:38:01;;;;;;;13.95;2.78;;;;;;;-144.05;76.72;56999.63;5000288;28;20065;-84
2023/12/11 00:40:27;;;;;;;17.67;2.80;;;;;;;-144.05;76.32;56980.53;4989292;28;20031;-87
2023/12/11 00:42:54;;;;;;;29.40;3.30;;;;;;;-144.05;76.91;56980.53;5007599;28;20034;-86
2023/12/11 00:45:20;;;;;;;20.15;5.35;;;;;;;-144.05;76.53;56969.91;5008329;28;20030;-87
2023/12/11 00:47:46;;;;;;;15.45;3.45;;;;;;;-144.05;76.03;56999.63;4991487;28;20019;-89
2023/12/11 00:50:12;;;;;;;16.38;3.10;;;;;;;-144.05;76.03;56982.66;5008305;28;20034;-86
2023/12/11 00:52:39;;;;;;;13.30;3.20;;;;;;;-144.05;76.09;56965.66;5008888;28;20065;-85
2023/12/11 00:55:06;;;;;;;18.63;3.95;;;;;;;-144.05;75.73;56978.41;4992297;28;20034;-87
2023/12/11 00:57:32;;;;;;;30.23;3.60;;;;;;;-144.05;76.62;56995.38;4994123;28;20497;-86
2023/12/11 00:59:58;;;;;;;16.73;2.78;;;;;;;-144.05;75.96;56982.66;5013595;28;20041;-89
2023/12/11 01:02:25;;;;;;;16.20;3.17;;;;;;;-144.05;76.20;56969.91;4999201;28;20038;-85
2023/12/11 01:04:51;;;;;;;17.85;3.17;;;;;;;-144.05;75.58;56982.66;4991996;28;20101;-86
2023/12/11 01:07:17;;;;;;;29.13;4.55;;;;;;;-144.05;75.75;57003.88;4996896;28;20030;-86
2023/12/11 01:09:44;;;;;;;15.45;3.58;;;;;;;-144.05;75.68;56999.63;4991573;28;20088;-87
2023/12/11 01:12:10;;;;;;;22.52;4.00;;;;;;;-144.05;76.02;56976.28;4991586;28;20031;-87
2023/12/11 01:14:37;;;;;;;26.83;4.93;;;;;;;-144.05;75.94;56976.28;5007764;28;20027;-87
2023/12/11 01:17:04;;;;;;;19.33;4.10;;;;;;;-144.05;76.57;56948.66;5004329;28;20122;-84
2023/12/11 01:19:30;;;;;;;18.13;4.00;;;;;;;-144.05;75.66;56986.91;4991151;28;20034;-86
2023/12/11 01:21:56;;;;;;;16.10;3.78;;;;;;;-144.05;75.93;56963.53;4992745;28;20026;-87
2023/12/11 01:24:25;;;;;;;16.40;3.50;;;;;;;-144.05;75.52;56993.25;5007780;28;20392;-87
2023/12/11 01:26:51;;;;;;;22.52;3.22;;;;;;;-144.05;75.50;56974.16;5010595;28;20046;-86
2023/12/11 01:29:18;;;;;;;16.95;3.50;;;;;;;-144.05;75.62;57003.88;5011729;28;20030;-87
2023/12/11 01:31:44;;;;;;;19.92;3.90;;;;;;;-144.05;74.85;56974.16;5010127;28;20035;-88
2023/12/11 01:34:11;;;;;;;27.88;4.30;;;;;;;-144.05;75.23;56972.03;5014481;28;20038;-85
2023/12/11 01:36:37;;;;;;;19.65;3.92;;;;;;;-144.05;75.60;56969.91;5021623;28;20092;-88
2023/12/11 01:39:03;;;;;;;24.65;3.65;;;;;;;-144.05;75.37;56991.13;5008997;28;20038;-89
2023/12/11 01:41:30;;;;;;;19.17;3.30;;;;;;;-144.05;75.25;56984.78;5011591;28;20522;-86
2023/12/11 01:43:56;;;;;;;19.98;3.83;;;;;;;-144.05;75.18;56991.13;4996039;28;20084;-85
2023/12/11 01:46:24;;;;;;;30.23;4.60;;;;;;;-144.05;74.68;56974.16;4995317;28;20121;-85
2023/12/11 01:48:53;;;;;;;26.33;4.90;;;;;;;-144.05;75.28;56965.66;4994861;28;20158;-85
2023/12/11 01:51:20;;;;;;;29.17;4.05;;;;;;;-144.05;74.90;56959.28;4995257;28;20409;-86
2023/12/11 01:53:50;;;;;;;24.58;5.43;;;;;;;-144.05;74.73;56967.78;5008325;28;20049;-86
2023/12/11 01:56:21;;;;;;;23.48;4.22;;;;;;;-144.05;74.61;56961.41;4992256;28;20027;-86
2023/12/11 01:58:48;;;;;;;31.20;4.80;;;;;;;-144.05;74.74;56965.66;4977753;28;20086;-87
2023/12/11 02:01:21;;;;;;;23.02;4.28;;;;;;;-144.05;74.74;56986.91;5011588;28;20023;-87
2023/12/11 02:03:49;;;;;;;20.90;4.18;;;;;;;-144.05;75.21;56984.78;4997182;28;20037;-87
2023/12/11 02:06:16;;;;;;;22.35;3.60;;;;;;;-144.05;75.36;57027.25;5003641;28;20019;-87
2023/12/11 02:08:45;;;;;;;20.98;4.32;;;;;;;-144.05;74.57;56995.38;5004387;28;20061;-85
2023/12/11 02:11:12;;;;;;;29.58;4.43;;;;;;;-144.05;74.93;56995.38;5022016;28;20034;-85
2023/12/11 02:13:40;;;;;;;28.95;5.35;;;;;;;-144.05;75.66;56982.66;5004754;28;20033;-85
2023/12/11 02:16:07;;;;;;;19.50;3.22;;;;;;;-144.05;75.02;56984.78;5016788;28;20037;-85
2023/12/11 02:18:33;;;;;;;34.60;4.13;;;;;;;-144.05;74.87;56984.78;5012380;28;20546;-83
2023/12/11 02:21:00;;;;;;;26.15;3.97;;;;;;;-144.05;74.76;56972.03;5011466;28;20031;-85
2023/12/11 02:23:41;;;;;;;27.63;3.90;;;;;;;-144.05;74.81;56986.91;5008117;28;20027;-88
2023/12/11 02:26:18;;;;;;;25.73;3.85;;;;;;;-144.05;74.54;56980.53;5011686;28;20030;-87
2023/12/11 02:28:45;;;;;;;25.73;3.53;;;;;;;-144.05;74.59;56980.53;4995630;28;20081;-86
2023/12/11 02:31:12;;;;;;;14.70;3.67;;;;;;;-144.05;73.98;56972.03;4996048;28;20050;-86
2023/12/11 02:33:39;;;;;;;27.55;4.88;;;;;;;-144.05;74.01;56993.25;5012193;28;20461;-86
2023/12/11 02:36:05;;;;;;;33.40;5.07;;;;;;;-144.05;74.60;56982.66;4994471;28;20058;-84
2023/12/11 02:38:32;;;;;;;18.95;4.15;;;;;;;-144.05;74.33;57006.00;5010787;28;20121;-87
2023/12/11 02:40:58;;;;;;;26.55;3.97;;;;;;;-144.05;74.31;56978.41;4994822;28;20030;-88
2023/12/11 02:43:25;;;;;;;30.85;4.75;;;;;;;-144.05;74.46;56950.78;5010727;28;20072;-86
2023/12/11 02:45:51;;;;;;;19.92;4.03;;;;;;;-144.05;73.97;56997.50;4995323;28;20098;-84
2023/12/11 02:48:18;;;;;;;28.17;4.95;;;;;;;-144.05;74.27;56974.16;4994195;28;20026;-86
2023/12/11 02:50:44;;;;;;;25.60;4.13;;;;;;;-144.05;74.31;57012.38;4993722;28;20040;-86
2023/12/11 02:53:11;;;;;;;29.02;4.53;;;;;;;-144.05;73.62;56982.66;4994692;28;20030;-87
2023/12/11 02:55:37;;;;;;;23.10;4.55;;;;;;;-144.05;73.82;56993.25;5010847;28;20036;-89
2023/12/11 02:58:04;;;;;;;22.95;3.30;;;;;;;-144.05;73.72;56967.78;5031478;28;20097;-86
2023/12/11 03:00:32;;;;;;;20.65;4.10;;;;;;;-144.05;73.67;56961.41;5020519;28;20481;-86
2023/12/11 03:02:58;;;;;;;27.88;4.45;;;;;;;-144.05;73.44;56993.25;5011799;28;20496;-89
2023/12/11 03:05:25;;;;;;;31.70;5.53;;;;;;;-144.05;73.20;57001.75;4991663;28;20113;-88
2023/12/11 03:07:51;;;;;;;23.05;5.40;;;;;;;-144.05;72.93;56972.03;4993940;28;20069;-88
2023/12/11 03:10:17;;;;;;;25.70;3.08;;;;;;;-144.05;72.29;56963.53;5014195;28;20071;-87
2023/12/11 03:12:44;;;;;;;20.45;3.20;;;;;;;-144.05;72.66;56993.25;5019017;28;20018;-83
2023/12/11 03:15:11;;;;;;;20.13;3.67;;;;;;;-144.05;72.98;56986.91;5017721;28;20038;-85
2023/12/11 03:17:37;;;;;;;28.67;4.90;;;;;;;-144.05;73.17;56997.50;5016804;28;20046;-84
2023/12/11 03:20:05;;;;;;;22.80;4.22;;;;;;;-144.05;72.83;56982.66;5022437;28;20027;-85
2023/12/11 03:22:31;;;;;;;23.17;3.50;;;;;;;-144.05;73.13;57018.75;5011391;28;20038;-87
2023/12/11 03:24:58;;;;;;;20.73;3.90;;;;;;;-144.05;72.71;57001.75;5000186;28;20038;-87
2023/12/11 03:27:24;;;;;;;21.98;3.30;;;;;;;-144.05;72.64;56993.25;5012564;28;20033;-87
2023/12/11 03:29:50;;;;;;;24.42;3.75;;;;;;;-144.05;72.86;56984.78;5009982;28;20045;-86
2023/12/11 03:32:17;;;;;;;25.77;4.72;;;;;;;-144.05;72.91;56980.53;5002654;28;20034;-88
2023/12/11 03:34:43;;;;;;;26.30;5.47;;;;;;;-144.05;72.68;56999.63;4995016;28;20396;-87
2023/12/11 03:37:10;;;;;;;21.60;3.40;;;;;;;-144.05;72.81;56989.00;5012721;28;20085;-88
2023/12/11 03:39:37;;;;;;;21.23;3.25;;;;;;;-144.05;72.65;56976.28;5013378;28;20041;-88
2023/12/11 03:42:03;;;;;;;29.42;5.03;;;;;;;-144.05;72.95;56984.78;5001118;28;20030;-87
2023/12/11 03:44:30;;;;;;;25.15;3.58;;;;;;;-144.05;72.46;56999.63;5000806;28;20041;-90
2023/12/11 03:46:57;;;;;;;35.58;4.88;;;;;;;-144.05;73.01;56986.91;5005386;28;20022;-88
2023/12/11 03:49:24;;;;;;;23.90;4.50;;;;;;;-144.05;72.64;56972.03;5011371;28;20034;-86
2023/12/11 03:51:53;;;;;;;26.38;4.20;;;;;;;-144.05;72.25;56993.25;4993121;28;20033;-84
2023/12/11 03:54:20;;;;;;;22.35;4.93;;;;;;;-144.05;72.39;56982.66;5009693;28;20030;-86
2023/12/11 03:56:46;;;;;;;19.75;3.10;;;;;;;-144.05;72.17;56965.66;4993275;28;20573;-84
2023/12/11 03:59:13;;;;;;;24.38;3.42;;;;;;;-144.05;71.82;56999.63;5008877;28;20053;-87
2023/12/11 04:01:40;;;;;;;19.73;3.85;;;;;;;-144.05;71.79;56961.41;5000559;28;20033;-86
2023/12/11 04:04:06;;;;;;;27.52;4.70;;;;;;;-144.05;72.96;56976.28;4992362;28;20026;-88
2023/12/11 04:06:32;;;;;;;20.48;2.85;;;;;;;-144.05;72.47;57018.75;4992401;28;20449;-88
2023/12/11 04:08:59;;;;;;;14.98;2.42;;;;;;;-144.05;73.30;56989.00;4992222;28;20038;-86
2023/12/11 04:11:25;;;;;;;19.30;4.15;;;;;;;-144.05;73.33;56972.03;4992268;28;20034;-86
2023/12/11 04:13:51;;;;;;;21.98;3.35;;;;;;;-144.05;73.62;56974.16;5005395;28;20034;-85
2023/12/11 04:16:18;;;;;;;21.42;2.88;;;;;;;-144.05;73.72;57006.00;4995077;28;20492;-87
2023/12/11 04:18:44;;;;;;;14.68;2.67;;;;;;;-144.05;74.13;56982.66;4992884;28;20065;-90
2023/12/11 04:21:10;;;;;;;14.15;2.75;;;;;;;-144.05;74.37;56997.50;5009177;28;20034;-88
2023/12/11 04:23:37;;;;;;;17.02;2.60;;;;;;;-144.05;74.15;56967.78;5006421;28;20144;-86
2023/12/11 04:26:04;;;;;;;16.73;2.88;;;;;;;-144.05;74.57;56999.63;4993471;28;20034;-85
2023/12/11 04:28:30;;;;;;;18.55;3.28;;;;;;;-144.05;74.19;56995.38;4988647;28;20440;-85
2023/12/11 04:30:56;;;;;;;22.38;3.25;;;;;;;-144.05;74.53;56967.78;4999972;28;20030;-86
2023/12/11 04:33:23;;;;;;;28.73;3.65;;;;;;;-144.05;74.11;56976.28;4992235;28;20077;-89
2023/12/11 04:35:49;;;;;;;21.65;3.45;;;;;;;-144.05;74.09;56993.25;5008371;28;20022;-86
2023/12/11 04:38:15;;;;;;;21.75;3.50;;;;;;;-144.05;73.67;56993.25;4991729;28;20481;-86
2023/12/11 04:40:42;;;;;;;22.50;4.05;;;;;;;-144.05;73.38;56986.91;4991765;28;20560;-86
2023/12/11 04:43:08;;;;;;;22.88;3.50;;;;;;;-144.05;73.09;56984.78;4992096;28;20030;-87
2023/12/11 04:45:34;;;;;;;24.05;3.30;;;;;;;-144.05;73.17;56959.28;4991959;28;20092;-87
2023/12/11 04:48:01;;;;;;;17.90;4.55;;;;;;;-144.05;72.66;57014.50;5008685;28;20045;-87
2023/12/11 04:50:27;;;;;;;21.70;3.88;;;;;;;-144.05;72.76;56972.03;4992314;28;20034;-87
2023/12/11 04:52:53;;;;;;;26.52;4.82;;;;;;;-144.05;73.75;56963.53;4993086;28;20041;-86
2023/12/11 04:55:23;;;;;;;15.20;2.97;;;;;;;-144.05;73.62;56995.38;5025981;28;20018;-85
2023/12/11 04:57:49;;;;;;;17.95;2.83;;;;;;;-144.05;73.82;57008.13;5018343;28;20179;-85
2023/12/11 05:00:17;;;;;;;20.55;2.92;;;;;;;-144.05;74.70;56991.13;4988455;28;20058;-87
2023/12/11 05:02:44;;;;;;;17.08;2.50;;;;;;;-144.05;75.42;56963.53;5008169;28;20108;-87
2023/12/11 05:05:10;;;;;;;13.32;2.10;;;;;;;-144.05;74.81;57008.13;5008139;28;20037;-85
2023/12/11 05:07:36;;;;;;;15.18;2.85;;;;;;;-144.05;74.99;56986.91;5006419;28;20027;-86
2023/12/11 05:10:03;;;;;;;16.42;2.80;;;;;;;-144.05;75.60;56986.91;5017064;28;20054;-85
2023/12/11 05:12:29;;;;;;;11.60;2.15;;;;;;;-144.05;76.39;56989.00;5002154;28;20062;-88
2023/12/11 05:14:55;;;;;;;18.77;2.97;;;;;;;-144.05;78.32;57014.50;5000422;28;20041;-87
2023/12/11 05:17:22;;;;;;;19.25;3.17;;;;;;;-144.05;79.21;56997.50;4996808;28;20046;-85
2023/12/11 05:19:48;;;;;;;16.60;3.30;;;;;;;-144.05;79.50;56980.53;5006852;28;20035;-87
2023/12/11 05:22:14;;;;;;;17.13;3.13;;;;;;;-144.05;80.23;57001.75;5008186;28;20121;-82
2023/12/11 05:24:41;;;;;;;17.90;2.85;;;;;;;-144.05;80.48;56980.53;4991713;28;20038;-84
2023/12/11 05:27:08;;;;;;;15.68;2.17;;;;;;;-144.05;79.47;56961.41;4991527;28;20370;-86
2023/12/11 05:29:34;;;;;;;9.30;2.05;;;;;;;-144.05;78.63;56978.41;4992831;28;20488;-85
2023/12/11 05:32:01;;;;;;;15.93;3.33;;;;;;;-144.05;78.60;56980.53;4991558;28;20048;-84
2023/12/11 05:34:27;;;;;;;11.25;2.33;;;;;;;-144.05;77.89;56993.25;4992654;28;20031;-85
2023/12/11 05:36:54;;;;;;;16.08;2.83;;;;;;;-144.05;78.13;57008.13;4991206;28;20034;-86
2023/12/11 05:39:20;;;;;;;15.65;2.53;;;;;;;-144.05;78.01;56984.78;5007556;28;20174;-85
2023/12/11 05:41:46;;;;;;;19.73;3.00;;;;;;;-144.05;78.60;56955.03;5011750;28;20031;-87
2023/12/11 05:44:12;;;;;;;14.80;1.83;;;;;;;-144.05;78.59;56969.91;4998683;28;20034;-87
2023/12/11 05:46:39;;;;;;;13.95;2.50;;;;;;;-144.05;79.07;56997.50;4999083;28;20113;-88
2023/12/11 05:49:05;;;;;;;11.57;3.17;;;;;;;-144.05;78.39;56993.25;4997960;28;20138;-84
2023/12/11 05:51:31;;;;;;;12.60;1.95;;;;;;;-144.05;78.63;56986.91;5008405;28;20038;-86
2023/12/11 05:53:58;;;;;;;12.65;2.72;;;;;;;-144.05;78.50;56980.53;4993265;28;20038;-87
2023/12/11 05:56:27;;;;;;;15.70;2.55;;;;;;;-144.05;79.76;56993.25;5005572;28;20030;-88
2023/12/11 05:58:56;;;;;;;10.48;1.70;;;;;;;-144.05;79.75;56972.03;4991849;28;20117;-88
2023/12/11 06:01:22;;;;;;;8.10;1.88;;;;;;;-144.05;79.29;57008.13;4992673;28;20137;-86
2023/12/11 06:03:48;;;;;;;12.15;2.13;;;;;;;-144.05;79.58;56993.25;5007269;28;20026;-86
2023/12/11 06:06:16;;;;;;;14.50;2.15;;;;;;;-144.05;79.22;56997.50;4992531;28;20105;-83
2023/12/11 06:08:43;;;;;;;13.38;2.20;;;;;;;-144.05;78.94;57012.38;4999257;28;20525;-85
2023/12/11 06:11:11;;;;;;;13.20;2.45;;;;;;;-144.05;78.60;56984.78;4991301;28;20034;-86
2023/12/11 06:13:40;;;;;;;13.93;2.80;;;;;;;-144.05;79.03;56986.91;4995048;28;20038;-85
2023/12/11 06:16:08;;;;;;;17.33;2.33;;;;;;;-144.05;78.81;57001.75;4999101;28;20557;-85
2023/12/11 06:18:35;;;;;;;18.70;2.15;;;;;;;-144.05;78.46;56972.03;5011013;28;20053;-85
2023/12/11 06:21:01;;;;;;;16.67;2.65;;;;;;;-144.05;78.01;56984.78;4998827;28;20030;-86
2023/12/11 06:23:28;;;;;;;18.42;3.35;;;;;;;-144.05;77.91;57018.75;4998687;28;20030;-88
2023/12/11 06:25:54;;;;;;;18.88;4.05;;;;;;;-144.05;77.98;56997.50;5004655;28;20066;-83
2023/12/11 06:28:20;;;;;;;17.65;3.30;;;;;;;-144.05;77.39;57001.75;4998212;28;20022;-86
2023/12/11 06:30:47;;;;;;;14.13;2.58;;;;;;;-144.05;77.29;57001.75;4997822;28;20039;-87
2023/12/11 06:33:13;;;;;;;19.27;2.80;;;;;;;-144.05;76.81;56995.38;5013868;28;20404;-85
2023/12/11 06:35:39;;;;;;;21.15;3.33;;;;;;;-144.05;76.89;56993.25;4997276;28;20416;-87
2023/12/11 06:38:06;;;;;;;13.95;2.72;;;;;;;-144.05;76.84;57006.00;4995892;28;20034;-88
2023/12/11 06:40:32;;;;;;;22.20;2.85;;;;;;;-144.05;77.01;56997.50;5007766;28;20030;-88
2023/12/11 06:42:58;;;;;;;17.95;2.85;;;;;;;-144.05;76.56;56999.63;5015200;28;20022;-87
2023/12/11 06:45:25;;;;;;;18.65;3.35;;;;;;;-144.05;76.17;56980.53;5008082;28;20045;-85
2023/12/11 06:47:51;;;;;;;17.23;3.35;;;;;;;-144.05;76.25;57012.38;5024178;28;20035;-86
2023/12/11 06:50:19;;;;;;;17.17;3.30;;;;;;;-144.05;75.63;56986.91;5005164;28;20125;-83
2023/12/11 06:52:46;;;;;;;21.52;3.20;;;;;;;-144.05;76.44;56959.28;5019394;28;20026;-83
2023/12/11 06:55:12;;;;;;;17.98;3.10;;;;;;;-144.05;76.05;56980.53;5003067;28;20047;-86
2023/12/11 06:57:39;;;;;;;16.08;2.72;;;;;;;-144.05;76.06;56980.53;5009850;28;20034;-82
2023/12/11 07:00:07;;;;;;;18.40;3.28;;;;;;;-144.05;77.01;56982.66;5010207;28;20030;-87
2023/12/11 07:02:34;;;;;;;15.55;2.85;;;;;;;-144.05;77.18;56963.53;4993006;28;20031;-88
2023/12/11 07:05:00;;;;;;;19.02;2.88;;;;;;;-144.05;77.52;56993.25;5009016;28;20031;-89
2023/12/11 07:07:26;;;;;;;19.30;3.33;;;;;;;-144.05;77.58;56997.50;4993600;28;20460;-88
2023/12/11 07:09:53;;;;;;;22.05;3.90;;;;;;;-144.05;77.27;56997.50;4996211;28;20083;-86
2023/12/11 07:12:20;;;;;;;16.45;3.33;;;;;;;-144.05;77.55;56972.03;4993720;28;20062;-87
2023/12/11 07:14:47;;;;;;;13.50;2.88;;;;;;;-144.05;77.42;57016.63;4987569;28;20089;-86
2023/12/11 07:17:14;;;;;;;15.93;4.28;;;;;;;-144.05;77.38;56986.91;4997927;28;20108;-83
2023/12/11 07:19:40;;;;;;;14.55;3.13;;;;;;;-144.05;78.05;56976.28;4997871;28;20030;-86
2023/12/11 07:22:16;;;;;;;15.98;3.70;;;;;;;-144.05;78.24;56965.66;5017929;28;20034;-83
2023/12/11 07:24:47;;;;;;;16.45;3.03;;;;;;;-144.05;77.80;56997.50;5032580;28;20019;-83
2023/12/11 07:27:13;;;;;;;17.13;3.35;;;;;;;-144.05;77.88;57033.63;5028953;28;20037;-84
2023/12/11 07:29:42;;;;;;;15.43;2.45;;;;;;;-144.05;77.38;56967.78;5004920;28;20114;-84
2023/12/11 07:32:09;;;;;;;15.20;3.38;;;;;;;-144.05;76.99;56980.53;5016943;28;20037;-86
2023/12/11 07:34:35;;;;;;;19.42;3.67;;;;;;;-144.05;76.61;56995.38;4999497;28;20599;-83
2023/12/11 07:37:05;;;;;;;23.25;3.05;;;;;;;-144.05;76.15;56976.28;5013949;28;20134;-86
2023/12/11 07:39:31;;;;;;;17.50;2.75;;;;;;;-144.05;76.52;56974.16;5015453;28;20673;-85
2023/12/11 07:42:00;;;;;;;14.40;3.72;;;;;;;-144.05;76.80;56984.78;4997226;28;20034;-85
2023/12/11 07:44:26;;;;;;;13.27;2.60;;;;;;;-144.05;76.60;56986.91;5006245;28;20045;-86
2023/12/11 07:46:55;;;;;;;19.35;2.60;;;;;;;-144.05;76.71;56995.38;5013099;28;20023;-87
2023/12/11 07:49:22;;;;;;;15.85;2.50;;;;;;;-144.05;76.56;57008.13;4999047;28;20512;-86
2023/12/11 07:51:48;;;;;;;24.50;4.70;;;;;;;-144.05;77.19;56984.78;5007186;28;20038;-85
2023/12/11 07:54:15;;;;;;;25.42;3.63;;;;;;;-144.05;78.01;57008.13;5006007;28;20045;-85
2023/12/11 07:56:41;;;;;;;17.00;2.55;;;;;;;-144.05;78.40;57008.13;5005882;28;20093;-88
2023/12/11 07:59:08;;;;;;;22.42;3.50;;;;;;;-144.05;79.01;57020.88;5017072;28;20053;-86
2023/12/11 08:01:35;;;;;;;23.20;2.78;;;;;;;-144.05;78.96;56997.50;4995898;28;20030;-84
2023/12/11 08:04:01;;;;;;;11.20;2.40;;;;;;;-144.05;79.00;56989.00;4995571;28;20034;-86
2023/12/11 08:06:28;;;;;;;18.92;3.15;;;;;;;-144.05;79.00;57003.88;4999601;28;20030;-87
2023/12/11 08:08:57;;;;;;;15.65;2.97;;;;;;;-144.05;78.73;56976.28;5011192;28;20504;-86
2023/12/11 08:11:28;;;;;;;16.98;3.03;;;;;;;-144.05;78.75;56974.16;5011186;28;20481;-88
2023/12/11 08:13:55;;;;;;;16.50;2.90;;;;;;;-144.05;79.02;56986.91;4994419;28;20022;-84
2023/12/11 08:16:23;;;;;;;13.82;2.60;;;;;;;-144.05;79.48;56972.03;4994796;28;20046;-86
2023/12/11 08:18:49;;;;;;;15.73;3.47;;;;;;;-144.05;78.88;56986.91;4994420;28;20109;-87
2023/12/11 08:21:16;;;;;;;17.35;2.50;;;;;;;-144.05;78.56;57018.75;4991235;28;20041;-86
2023/12/11 08:23:47;;;;;;;14.63;2.35;;;;;;;-144.05;77.63;56993.25;4985865;28;20070;-85
2023/12/11 08:26:19;;;;;;;20.40;2.50;;;;;;;-144.05;78.06;57006.00;5011732;28;20094;-87
2023/12/11 08:28:48;;;;;;;13.40;2.97;;;;;;;-144.05;77.85;56986.91;4996522;28;20064;-87
2023/12/11 08:31:15;;;;;;;17.00;2.65;;;;;;;-144.05;79.03;57006.00;5011660;28;20089;-87
2023/12/11 08:33:41;;;;;;;15.48;3.85;;;;;;;-144.05;81.24;56997.50;4994467;28;20552;-86
2023/12/11 08:36:08;;;;;;;20.90;3.38;;;;;;;-144.05;80.57;56972.03;4993830;28;20030;-86
2023/12/11 08:38:34;;;;;;;16.17;3.38;;;;;;;-144.05;81.24;57031.50;4995998;28;20050;-90
2023/12/11 08:41:04;;;;;;;12.50;2.88;;;;;;;-144.05;81.41;57008.13;4994722;28;20032;-83
2023/12/11 08:43:30;;;;;;;13.02;2.92;;;;;;;-144.05;81.58;56972.03;4996464;28;20037;-87
2023/12/11 08:45:57;;;;;;;11.07;2.78;;;;;;;-144.05;81.13;56993.25;5011858;28;20267;-81
2023/12/11 08:48:23;;;;;;;21.00;2.65;;;;;;;-144.05;80.52;56993.25;5006994;28;20089;-88
2023/12/11 08:50:53;;;;;;;24.40;4.82;;;;;;;-144.05;80.32;56986.91;5013658;28;20033;-87
2023/12/11 08:53:23;;;;;;;12.20;2.55;;;;;;;-144.05;79.87;56997.50;5012397;28;20034;-83
2023/12/11 08:55:51;;;;;;;15.88;2.47;;;;;;;-144.05;79.91;56984.78;5010222;28;20114;-84
2023/12/11 08:58:17;;;;;;;22.27;3.05;;;;;;;-144.05;79.10;57020.88;4999439;28;20023;-86
2023/12/11 09:00:44;;;;;;;18.80;2.60;;;;;;;-144.05;79.05;56991.13;4994048;28;20061;-85
2023/12/11 09:03:11;;;;;;;14.57;3.15;;;;;;;-144.05;79.18;56982.66;4995731;28;20026;-86
2023/12/11 09:05:37;;;;;;;13.10;2.10;;;;;;;-144.05;78.91;57003.88;5009665;28;20030;-85
2023/12/11 09:08:04;;;;;;;12.07;2.40;;;;;;;-144.05;79.08;56993.25;5012273;28;20030;-84
2023/12/11 09:10:37;;;;;;;12.75;2.70;;;;;;;-144.05;78.13;56995.38;5013270;28;20041;-87
2023/12/11 09:13:04;;;;;;;14.70;2.63;;;;;;;-144.05;78.79;56972.03;4996022;28;20065;-86
2023/12/11 09:15:31;;;;;;;13.80;2.55;;;;;;;-144.05;79.05;56972.03;4996285;28;20030;-86
2023/12/11 09:17:57;;;;;;;19.83;2.90;;;;;;;-144.05;78.73;56993.25;4994460;28;20132;-88
2023/12/11 09:20:24;;;;;;;18.98;2.65;;;;;;;-144.05;78.36;57010.25;4993638;28;20038;-85
2023/12/11 09:22:51;;;;;;;18.00;2.47;;;;;;;-144.05;78.11;56989.00;4994671;28;20408;-86
2023/12/11 09:25:17;;;;;;;15.20;2.80;;;;;;;-144.05;78.40;56980.53;5008101;28;20033;-87
2023/12/11 09:27:44;;;;;;;10.82;2.50;;;;;;;-144.05;78.50;56980.53;4993426;28;20559;-87
2023/12/11 09:30:10;;;;;;;13.85;2.35;;;;;;;-144.05;78.82;56997.50;4993755;28;20034;-84
2023/12/11 09:32:37;;;;;;;15.27;2.92;;;;;;;-144.05;78.46;56991.13;4994842;28;20084;-87
2023/12/11 09:35:07;;;;;;;11.25;2.20;;;;;;;-144.05;78.26;56961.41;4994706;28;20034;-88
2023/12/11 09:37:34;;;;;;;9.43;2.20;;;;;;;-144.05;78.01;57006.00;5007707;28;20069;-85
2023/12/11 09:40:00;;;;;;;14.93;2.67;;;;;;;-144.05;77.16;57003.88;4995735;28;20042;-86
2023/12/11 09:42:29;;;;;;;16.77;2.75;;;;;;;-144.05;76.82;56995.38;4999155;28;20146;-86
2023/12/11 09:44:56;;;;;;;12.48;2.20;;;;;;;-144.05;76.51;56974.16;4991352;28;20027;-87
2023/12/11 09:47:38;;;;;;;12.68;2.67;;;;;;;-144.05;76.27;56995.38;4997127;28;20033;-86
2023/12/11 09:50:06;;;;;;;13.05;2.50;;;;;;;-144.05;76.49;56995.38;5005423;28;20137;-85
2023/12/11 09:52:32;;;;;;;13.00;2.88;;;;;;;-144.05;77.43;57003.88;4997880;28;20034;-87
2023/12/11 09:54:58;;;;;;;15.77;2.78;;;;;;;-144.05;76.86;57001.75;4998069;28;20031;-88
2023/12/11 09:57:26;;;;;;;8.57;2.05;;;;;;;-144.05;76.82;56999.63;5001748;28;20046;-87
2023/12/11 09:59:53;;;;;;;20.23;3.10;;;;;;;-144.05;76.89;56976.28;5014148;28;20404;-84
2023/12/11 10:02:20;;;;;;;14.27;2.63;;;;;;;-144.05;76.87;56997.50;4994374;28;20066;-87
2023/12/11 10:05:10;;;;;;;8.73;2.35;;;;;;;-144.05;76.91;56995.38;4980315;28;20138;-88
2023/12/11 10:07:40;;;;;;;14.40;2.63;;;;;;;-144.05;77.30;56976.28;5003072;28;20026;-88
2023/12/11 10:10:38;;;;;;;11.82;3.55;;;9.80;99.90;;;-144.05;76.96;56980.53;5017949;28;20037;-88
2023/12/11 10:13:05;;;;;;;12.23;2.80;;;;;;;-144.05;77.01;56972.03;4992604;28;20022;-86
2023/12/11 10:15:36;;;;;;;11.18;4.38;;;;;;;-144.05;76.29;56976.28;4998042;28;20108;-84
2023/12/11 10:18:09;;;;;;;14.40;3.05;;;;;;;-144.05;76.15;56986.91;4983866;28;20031;-88
2023/12/11 10:20:38;;;;;;;9.18;2.38;;;;;;;-144.05;75.46;56976.28;5014415;28;20226;-85
2023/12/11 10:23:20;;;;;;;12.15;2.88;;;;;;;-144.05;75.53;56976.28;4998750;28;20026;-86
2023/12/11 10:25:53;;;;;;;7.47;2.45;;;;;;;-144.05;74.91;57006.00;4997286;28;20022;-85
2023/12/11 10:28:23;;;;;;;13.90;3.08;;;;;;;-144.05;74.76;56986.91;4997866;28;20384;-85
2023/12/11 10:30:53;;;;;;;10.88;2.90;;;;;;;-144.05;74.52;56980.53;4998279;28;20022;-83
2023/12/11 10:33:22;;;;;;;12.13;2.22;;;;;;;-144.05;74.97;57012.38;5014061;28;20128;-88
2023/12/11 10:35:49;;;;;;;16.35;3.35;;;;;;;-144.05;75.29;56984.78;5004432;28;20568;-86
2023/12/11 10:38:27;;;;;;;7.28;2.10;;;;;;;-144.05;76.02;57016.63;5009300;28;20022;-78
2023/12/11 10:40:55;;;;;;;7.38;2.20;;;;;;;-144.05;75.04;56978.41;5015432;28;20125;-84
2023/12/11 10:43:21;;;;;;;9.82;2.72;;;;;;;-144.05;75.37;56963.53;4997259;28;20034;-83
2023/12/11 10:45:48;;;;;;;7.78;2.25;;;;;;;-144.05;75.68;56993.25;5013802;28;20095;-85
2023/12/11 10:48:14;;;;;;;9.27;2.33;;;;;;;-144.05;75.33;56995.38;4998563;28;20026;-86
2023/12/11 10:50:42;;;;;;;12.48;2.20;;;;;;;-144.05;75.20;56999.63;4999530;28;20042;-85
2023/12/11 10:53:08;;;;;;;6.55;2.00;;;;;;;-144.05;75.67;56976.28;5013973;28;20034;-86
2023/12/11 10:55:37;;;;;;;8.38;2.00;;;;;;;-144.05;76.59;56980.53;4997611;28;20054;-86
2023/12/11 10:58:07;;;;;;;11.80;2.53;;;;;;;-144.05;76.79;57008.13;4997567;28;20081;-82
2023/12/11 11:00:36;;;;;;;9.60;2.88;;;;;;;-144.05;78.15;56976.28;5013622;28;20034;-81
2023/12/11 11:03:09;;;;;;;9.02;2.50;;;;;;;-144.05;77.37;56997.50;4998687;28;20442;-87
2023/12/11 11:05:36;;;;;;;13.00;2.63;;;;;;;-144.05;77.59;56980.53;4999154;28;20041;-87
2023/12/11 11:08:11;;;;;;;15.27;2.75;;;;;;;-144.05;77.76;56995.38;5014508;28;20022;-85
2023/12/11 11:11:10;;;;;;;17.27;3.05;;;;;;;-144.05;78.31;56991.13;4999646;28;20026;-86